createdAt,value
2018-12-09T00:02:04.221Z,22.30
2018-12-09T00:04:32.148Z,16.83
2018-12-09T00:07:00.117Z,17.03
2018-12-09T00:09:28.173Z,20.73
2018-12-09T00:11:56.121Z,15.07
2018-12-09T00:14:24.057Z,18.57
2018-12-09T00:16:52.030Z,12.13
2018-12-09T00:19:20.021Z,19.00
2018-12-09T00:21:48.031Z,12.43
2018-12-09T00:24:16.007Z,18.83
2018-12-09T00:26:43.972Z,19.83
2018-12-09T00:29:11.948Z,14.93
2018-12-09T00:31:39.950Z,11.80
2018-12-09T00:34:07.926Z,18.87
2018-12-09T00:36:35.888Z,15.70
2018-12-09T00:39:05.530Z,11.83
2018-12-09T00:41:33.558Z,14.60
2018-12-09T00:44:02.193Z,15.87
2018-12-09T00:46:30.193Z,16.20
2018-12-09T00:48:58.137Z,13.60
2018-12-09T00:51:26.164Z,13.63
2018-12-09T00:53:54.134Z,24.33
2018-12-09T00:56:22.902Z,24.17
2018-12-09T00:58:50.844Z,19.03
2018-12-09T01:01:18.817Z,17.40
2018-12-09T01:03:46.805Z,15.60
2018-12-09T01:06:14.781Z,18.30
2018-12-09T01:08:42.738Z,16.80
2018-12-09T01:11:10.693Z,16.97
2018-12-09T01:13:39.443Z,10.80
2018-12-09T01:16:07.456Z,13.00
2018-12-09T01:18:35.449Z,12.10
2018-12-09T01:21:03.453Z,15.10
2018-12-09T01:23:31.449Z,12.00
2018-12-09T01:25:59.381Z,16.40
2018-12-09T01:28:27.333Z,14.03
2018-12-09T01:30:55.636Z,14.60
2018-12-09T01:33:23.548Z,15.23
2018-12-09T01:35:51.525Z,16.50
2018-12-09T01:38:19.469Z,17.70
2018-12-09T01:40:54.639Z,13.63
2018-12-09T01:43:22.613Z,13.83
2018-12-09T01:45:50.589Z,14.07
2018-12-09T01:48:18.578Z,17.30
2018-12-09T01:50:46.666Z,11.90
2018-12-09T01:53:26.570Z,17.73
2018-12-09T01:55:54.553Z,16.13
2018-12-09T01:58:22.573Z,18.13
2018-12-09T02:00:50.481Z,18.37
2018-12-09T02:03:18.540Z,14.23
2018-12-09T02:05:46.501Z,15.30
2018-12-09T02:08:15.260Z,10.87
2018-12-09T02:10:43.312Z,16.80
2018-12-09T02:13:11.735Z,15.50
2018-12-09T02:15:39.768Z,16.67
2018-12-09T02:18:07.807Z,15.30
2018-12-09T02:20:35.779Z,15.70
2018-12-09T02:23:03.929Z,13.50
2018-12-09T02:25:31.914Z,12.40
2018-12-09T02:27:59.880Z,17.30
2018-12-09T02:30:27.893Z,17.57
2018-12-09T02:32:55.866Z,14.43
2018-12-09T02:35:23.917Z,10.60
2018-12-09T02:37:52.295Z,12.60
2018-12-09T02:40:20.255Z,11.20
2018-12-09T02:42:48.186Z,11.37
2018-12-09T02:45:16.179Z,11.80
2018-12-09T02:47:44.357Z,13.90
2018-12-09T02:50:12.313Z,14.00
2018-12-09T02:52:41.640Z,10.70
2018-12-09T02:55:09.614Z,11.90
2018-12-09T02:57:37.572Z,11.00
2018-12-09T03:00:06.341Z,10.40
2018-12-09T03:02:34.329Z,12.37
2018-12-09T03:05:02.425Z,10.67
2018-12-09T03:07:30.454Z,13.10
2018-12-09T03:09:58.693Z,8.37
2018-12-09T03:12:26.679Z,10.20
2018-12-09T03:14:54.761Z,11.13
2018-12-09T03:17:22.719Z,10.23
2018-12-09T03:19:50.762Z,9.63
2018-12-09T03:22:18.749Z,9.87
2018-12-09T03:24:46.723Z,7.30
2018-12-09T03:27:14.789Z,6.57
2018-12-09T03:29:42.758Z,9.67
2018-12-09T03:32:10.713Z,10.77
2018-12-09T03:34:38.670Z,7.50
2018-12-09T03:37:06.792Z,11.83
2018-12-09T03:39:34.805Z,8.97
2018-12-09T03:42:02.718Z,8.73
2018-12-09T03:44:30.664Z,9.23
2018-12-09T03:46:59.027Z,8.40
2018-12-09T03:49:27.113Z,8.80
2018-12-09T03:51:55.059Z,9.50
2018-12-09T03:54:23.006Z,9.20
2018-12-09T03:56:51.341Z,9.20
2018-12-09T03:59:19.294Z,8.23
2018-12-09T04:01:47.240Z,5.53
2018-12-09T04:04:15.258Z,6.70
2018-12-09T04:06:43.205Z,8.00
2018-12-09T04:09:11.530Z,7.60
2018-12-09T04:11:39.491Z,5.87
2018-12-09T04:14:07.471Z,6.73
2018-12-09T04:16:35.753Z,8.60
2018-12-09T04:19:03.766Z,6.27
2018-12-09T04:21:32.019Z,5.93
2018-12-09T04:23:59.970Z,4.63
2018-12-09T04:26:27.926Z,8.13
2018-12-09T04:28:55.879Z,5.93
2018-12-09T04:31:23.890Z,5.77
2018-12-09T04:33:51.845Z,5.40
2018-12-09T04:36:19.807Z,6.40
2018-12-09T04:38:47.748Z,9.03
2018-12-09T04:41:15.725Z,8.13
2018-12-09T04:43:43.711Z,9.23
2018-12-09T04:46:11.642Z,6.00
2018-12-09T04:48:39.581Z,5.50
2018-12-09T04:51:07.637Z,6.53
2018-12-09T04:53:35.603Z,6.60
2018-12-09T04:56:04.456Z,7.80
2018-12-09T04:58:32.413Z,10.53
2018-12-09T05:01:00.371Z,10.47
2018-12-09T05:03:28.346Z,7.43
2018-12-09T05:05:56.293Z,8.33
2018-12-09T05:08:24.241Z,7.10
2018-12-09T05:10:52.230Z,14.50
2018-12-09T05:13:20.178Z,9.03
2018-12-09T05:15:48.747Z,11.30
2018-12-09T05:18:16.738Z,10.03
2018-12-09T05:20:45.083Z,11.93
2018-12-09T05:23:13.078Z,10.10
2018-12-09T05:25:41.129Z,12.97
2018-12-09T05:28:09.092Z,9.53
2018-12-09T05:30:37.103Z,8.43
2018-12-09T05:33:05.440Z,13.07
2018-12-09T05:35:33.369Z,9.90
2018-12-09T05:38:01.322Z,8.63
2018-12-09T05:40:29.296Z,11.43
2018-12-09T05:42:57.241Z,10.87
2018-12-09T05:45:25.578Z,13.77
2018-12-09T05:47:53.617Z,8.30
2018-12-09T05:50:21.552Z,11.97
2018-12-09T05:52:49.523Z,8.63
2018-12-09T05:55:17.921Z,9.80
2018-12-09T05:57:46.827Z,13.60
2018-12-09T06:00:14.821Z,14.40
2018-12-09T06:02:50.065Z,12.50
2018-12-09T06:05:18.120Z,8.67
2018-12-09T06:07:46.091Z,7.73
2018-12-09T06:10:14.085Z,9.47
2018-12-09T06:12:42.196Z,7.90
2018-12-09T06:15:10.297Z,17.10
2018-12-09T06:17:38.257Z,8.97
2018-12-09T06:20:06.358Z,11.63
2018-12-09T06:22:34.300Z,8.53
2018-12-09T06:25:02.382Z,8.40
2018-12-09T06:27:30.424Z,15.50
2018-12-09T06:29:58.393Z,7.67
2018-12-09T06:32:26.355Z,6.53
2018-12-09T06:34:54.283Z,6.10
2018-12-09T06:37:22.222Z,10.20
2018-12-09T06:39:50.156Z,11.13
2018-12-09T06:42:18.149Z,8.80
2018-12-09T06:44:46.217Z,14.13
2018-12-09T06:47:14.288Z,13.00
2018-12-09T06:49:42.264Z,9.40
2018-12-09T06:52:10.225Z,9.77
2018-12-09T06:54:38.186Z,10.50
2018-12-09T06:57:06.332Z,13.67
2018-12-09T06:59:34.253Z,15.40
2018-12-09T07:02:02.229Z,10.57
2018-12-09T07:04:30.502Z,12.40
2018-12-09T07:06:58.450Z,15.80
2018-12-09T07:09:26.390Z,12.43
2018-12-09T07:11:54.687Z,15.03
2018-12-09T07:14:22.633Z,7.00
2018-12-09T07:16:50.605Z,8.00
2018-12-09T07:19:18.568Z,9.87
2018-12-09T07:21:46.503Z,9.60
2018-12-09T07:24:14.739Z,6.80
2018-12-09T07:26:42.813Z,8.63
2018-12-09T07:29:10.805Z,10.13
2018-12-09T07:31:38.779Z,5.33
2018-12-09T07:34:06.867Z,4.10
2018-12-09T07:36:35.425Z,3.13
2018-12-09T07:39:05.440Z,2.83
2018-12-09T07:41:33.500Z,5.13
2018-12-09T07:44:01.482Z,9.57
2018-12-09T07:46:29.453Z,3.43
2018-12-09T07:48:57.798Z,4.23
2018-12-09T07:51:25.742Z,5.33
2018-12-09T07:53:53.661Z,4.70
2018-12-09T07:56:21.655Z,6.10
2018-12-09T07:58:49.621Z,4.57
2018-12-09T08:01:17.608Z,4.63
2018-12-09T08:03:45.536Z,4.73
2018-12-09T08:06:13.497Z,4.63
2018-12-09T08:08:42.326Z,5.03
2018-12-09T08:11:10.290Z,4.73
2018-12-09T08:13:38.306Z,5.40
2018-12-09T08:16:06.289Z,3.10
2018-12-09T08:18:34.276Z,2.77
2018-12-09T08:21:02.270Z,3.43
2018-12-09T08:23:30.204Z,3.07
2018-12-09T08:25:58.152Z,6.37
2018-12-09T08:28:26.116Z,2.50
2018-12-09T08:30:54.067Z,3.80
2018-12-09T08:33:22.001Z,4.37
2018-12-09T08:35:49.990Z,3.40
2018-12-09T08:38:17.945Z,7.30
2018-12-09T08:40:45.931Z,3.83
2018-12-09T08:43:13.983Z,5.30
2018-12-09T08:45:41.934Z,4.93
2018-12-09T08:48:09.911Z,4.97
2018-12-09T08:50:37.902Z,4.33
2018-12-09T08:53:05.908Z,5.10
2018-12-09T08:55:33.828Z,5.20
2018-12-09T08:58:01.792Z,3.40
2018-12-09T09:00:29.736Z,2.07
2018-12-09T09:02:57.699Z,4.67
2018-12-09T09:05:25.678Z,3.30
2018-12-09T09:07:53.706Z,6.57
2018-12-09T09:10:22.081Z,5.10
2018-12-09T09:12:50.134Z,2.30
2018-12-09T09:15:18.149Z,3.90
2018-12-09T09:17:46.592Z,3.07
2018-12-09T09:20:14.553Z,4.17
2018-12-09T09:22:42.805Z,2.17
2018-12-09T09:25:11.254Z,5.73
2018-12-09T09:27:39.230Z,3.87
2018-12-09T09:30:07.906Z,8.67
2018-12-09T09:32:35.891Z,3.90
2018-12-09T09:35:04.038Z,2.60
2018-12-09T09:37:31.965Z,5.60
2018-12-09T09:39:59.955Z,4.70
2018-12-09T09:42:27.933Z,5.83
2018-12-09T09:44:56.236Z,4.83
2018-12-09T09:47:24.173Z,3.80
2018-12-09T09:49:52.125Z,3.83
2018-12-09T09:52:20.449Z,4.33
2018-12-09T09:54:48.629Z,6.07
2018-12-09T09:57:16.560Z,7.83
2018-12-09T09:59:44.494Z,3.80
2018-12-09T10:02:12.423Z,5.20
2018-12-09T10:04:40.534Z,2.27
2018-12-09T10:07:08.488Z,6.97
2018-12-09T10:09:36.714Z,4.63
2018-12-09T10:12:04.672Z,4.43
2018-12-09T10:14:32.735Z,2.90
2018-12-09T10:17:00.669Z,3.43
2018-12-09T10:19:28.648Z,4.20
2018-12-09T10:21:56.658Z,5.37
2018-12-09T10:24:24.588Z,2.30
2018-12-09T10:26:52.643Z,5.73
2018-12-09T10:29:20.558Z,2.20
2018-12-09T10:31:48.549Z,3.90
2018-12-09T10:34:16.513Z,6.33
2018-12-09T10:36:44.539Z,7.90
2018-12-09T10:39:12.447Z,4.37
2018-12-09T10:41:40.460Z,3.63
2018-12-09T10:44:08.466Z,4.67
2018-12-09T10:46:36.395Z,6.37
2018-12-09T10:49:05.791Z,9.00
2018-12-09T10:51:33.769Z,3.63
2018-12-09T10:54:01.717Z,7.10
2018-12-09T10:56:29.658Z,5.87
2018-12-09T10:58:57.579Z,5.90
2018-12-09T11:01:26.346Z,4.60
2018-12-09T11:03:54.865Z,3.60
2018-12-09T11:06:23.094Z,3.57
2018-12-09T11:08:51.074Z,5.53
2018-12-09T11:11:19.045Z,3.37
2018-12-09T11:13:46.998Z,3.73
2018-12-09T11:16:14.951Z,2.37
2018-12-09T11:18:43.446Z,3.40
2018-12-09T11:21:11.390Z,3.60
2018-12-09T11:23:39.329Z,4.90
2018-12-09T11:26:07.682Z,2.70
2018-12-09T11:28:35.602Z,2.37
2018-12-09T11:31:03.689Z,4.43
2018-12-09T11:33:31.721Z,3.33
2018-12-09T11:36:00.356Z,2.20
2018-12-09T11:38:29.140Z,3.93
2018-12-09T11:40:57.096Z,3.40
2018-12-09T11:43:27.337Z,4.17
2018-12-09T11:45:55.393Z,3.20
2018-12-09T11:48:23.281Z,6.23
2018-12-09T11:50:51.686Z,3.10
2018-12-09T11:53:19.625Z,5.50
2018-12-09T11:55:47.644Z,3.20
2018-12-09T11:58:15.627Z,4.10
2018-12-09T12:00:43.688Z,4.33
2018-12-09T12:03:11.585Z,3.20
2018-12-09T12:05:39.537Z,6.13
2018-12-09T12:08:07.477Z,5.93
2018-12-09T12:10:35.431Z,4.50
2018-12-09T12:13:03.400Z,3.50
2018-12-09T12:15:31.348Z,3.83
2018-12-09T12:17:59.301Z,5.47
2018-12-09T12:20:27.285Z,3.87
2018-12-09T12:22:55.224Z,3.30
2018-12-09T12:25:23.160Z,5.70
2018-12-09T12:27:51.114Z,7.10
2018-12-09T12:30:19.089Z,5.50
2018-12-09T12:32:47.053Z,6.90
2018-12-09T12:35:15.699Z,3.13
2018-12-09T12:37:43.633Z,8.87
2018-12-09T12:40:12.197Z,5.00
2018-12-09T12:42:40.242Z,6.00
2018-12-09T12:45:08.258Z,4.37
2018-12-09T12:47:36.253Z,5.20
2018-12-09T12:50:04.773Z,5.70
2018-12-09T12:52:32.788Z,6.57
2018-12-09T12:55:00.758Z,8.07
2018-12-09T12:57:28.874Z,6.03
2018-12-09T12:59:56.865Z,6.60
2018-12-09T13:02:24.825Z,4.93
2018-12-09T13:04:52.780Z,8.43
2018-12-09T13:07:20.859Z,5.60
2018-12-09T13:09:48.848Z,8.03
2018-12-09T13:12:17.492Z,9.00
2018-12-09T13:14:46.326Z,3.20
2018-12-09T13:17:14.264Z,5.93
2018-12-09T13:19:42.239Z,5.13
2018-12-09T13:22:10.206Z,5.87
2018-12-09T13:24:38.127Z,4.27
2018-12-09T13:27:06.065Z,6.97
2018-12-09T13:29:34.069Z,3.80
2018-12-09T13:32:02.005Z,5.73
2018-12-09T13:34:30.088Z,4.37
2018-12-09T13:36:58.041Z,6.80
2018-12-09T13:39:26.029Z,4.80
2018-12-09T13:41:54.047Z,5.30
2018-12-09T13:44:22.581Z,4.83
2018-12-09T13:46:50.508Z,5.80
2018-12-09T13:49:19.562Z,6.50
2018-12-09T13:51:47.564Z,4.13
2018-12-09T13:54:15.576Z,3.90
2018-12-09T13:56:43.578Z,4.70
2018-12-09T13:59:11.525Z,5.80
2018-12-09T14:01:40.266Z,4.50
2018-12-09T14:04:08.232Z,4.87
2018-12-09T14:06:37.187Z,9.03
2018-12-09T14:09:06.108Z,4.03
2018-12-09T14:11:34.341Z,3.10
2018-12-09T14:14:02.352Z,5.40
2018-12-09T14:16:30.506Z,3.83
2018-12-09T14:18:58.481Z,2.37
2018-12-09T14:21:26.430Z,3.20
2018-12-09T14:23:54.477Z,2.53
2018-12-09T14:26:22.506Z,4.23
2018-12-09T14:28:50.968Z,4.00
2018-12-09T14:31:18.918Z,3.07
2018-12-09T14:33:46.908Z,5.30
2018-12-09T14:36:14.829Z,9.50
2018-12-09T14:38:43.513Z,4.70
2018-12-09T14:41:11.452Z,8.27
2018-12-09T14:43:39.398Z,5.37
2018-12-09T14:46:07.361Z,4.87
2018-12-09T14:48:35.293Z,4.37
2018-12-09T14:51:03.218Z,8.50
2018-12-09T14:53:31.154Z,5.47
2018-12-09T14:55:59.091Z,4.17
2018-12-09T14:58:27.054Z,3.40
2018-12-09T15:00:55.000Z,5.33
2018-12-09T15:03:22.938Z,4.80
2018-12-09T15:05:50.885Z,9.00
2018-12-09T15:08:19.063Z,9.13
2018-12-09T15:10:47.035Z,5.13
2018-12-09T15:13:14.955Z,5.23
2018-12-09T15:15:42.974Z,13.10
2018-12-09T15:18:10.938Z,4.07
2018-12-09T15:20:38.917Z,6.60
2018-12-09T15:23:06.834Z,6.67
2018-12-09T15:25:34.801Z,8.37
2018-12-09T15:28:02.729Z,10.10
2018-12-09T15:30:30.680Z,3.40
2018-12-09T15:32:58.644Z,9.73
2018-12-09T15:35:26.577Z,8.00
2018-12-09T15:37:54.504Z,8.10
2018-12-09T15:40:22.483Z,11.83
2018-12-09T15:42:50.433Z,11.40
2018-12-09T15:45:18.417Z,7.87
2018-12-09T15:47:46.837Z,12.00
2018-12-09T15:50:14.913Z,7.43
2018-12-09T15:52:42.852Z,9.03
2018-12-09T15:55:11.055Z,7.73
2018-12-09T15:57:39.021Z,7.70
2018-12-09T16:00:08.251Z,4.33
2018-12-09T16:02:36.193Z,11.77
2018-12-09T16:05:04.688Z,6.17
2018-12-09T16:07:32.636Z,8.43
2018-12-09T16:10:00.614Z,13.33
2018-12-09T16:12:28.557Z,6.40
2018-12-09T16:14:56.529Z,6.87
2018-12-09T16:17:24.469Z,8.23
2018-12-09T16:19:52.445Z,10.83
2018-12-09T16:22:20.395Z,6.30
2018-12-09T16:24:48.329Z,11.40
2018-12-09T16:27:16.401Z,7.57
2018-12-09T16:29:44.327Z,8.73
2018-12-09T16:32:12.390Z,11.77
2018-12-09T16:34:40.343Z,11.60
2018-12-09T16:37:08.309Z,12.67
2018-12-09T16:39:36.867Z,7.60
2018-12-09T16:42:04.833Z,11.57
2018-12-09T16:44:32.788Z,5.07
2018-12-09T16:47:00.839Z,11.03
2018-12-09T16:49:28.887Z,11.17
2018-12-09T16:51:57.866Z,11.33
2018-12-09T16:54:25.801Z,13.77
2018-12-09T16:56:53.725Z,16.80
2018-12-09T16:59:21.686Z,13.70
2018-12-09T17:01:49.649Z,10.03
2018-12-09T17:04:17.608Z,9.97
2018-12-09T17:06:45.581Z,7.13
2018-12-09T17:09:13.545Z,10.33
2018-12-09T17:11:41.641Z,7.80
2018-12-09T17:14:09.641Z,11.23
2018-12-09T17:16:37.651Z,12.90
2018-12-09T17:19:05.616Z,14.60
2018-12-09T17:21:33.617Z,9.40
2018-12-09T17:24:01.768Z,10.63
2018-12-09T17:26:29.702Z,10.23
2018-12-09T17:29:05.190Z,12.10
2018-12-09T17:31:27.799Z,10.80
2018-12-09T17:33:56.457Z,12.30
2018-12-09T17:36:24.409Z,16.00
2018-12-09T17:38:52.405Z,21.07
2018-12-09T17:41:24.973Z,13.63
2018-12-09T17:43:50.252Z,13.93
2018-12-09T17:46:18.202Z,22.70
2018-12-09T17:48:46.152Z,10.27
2018-12-09T17:51:14.151Z,14.20
2018-12-09T17:53:42.151Z,10.47
2018-12-09T17:56:10.220Z,11.40
2018-12-09T17:58:38.181Z,9.57
2018-12-09T18:01:08.132Z,11.57
2018-12-09T18:03:36.100Z,13.70
2018-12-09T18:06:04.116Z,14.17
2018-12-09T18:08:32.077Z,28.70
2018-12-09T18:11:00.506Z,11.53
2018-12-09T18:13:29.156Z,14.07
2018-12-09T18:15:59.376Z,12.20
2018-12-09T18:18:27.297Z,12.53
2018-12-09T18:20:55.249Z,16.93
2018-12-09T18:23:23.224Z,17.23
2018-12-09T18:25:51.179Z,14.30
2018-12-09T18:28:19.149Z,13.90
2018-12-09T18:30:47.568Z,14.07
2018-12-09T18:33:15.577Z,12.80
2018-12-09T18:35:44.239Z,11.73
2018-12-09T18:38:12.983Z,19.20
2018-12-09T18:40:40.996Z,16.33
2018-12-09T18:43:08.961Z,10.67
2018-12-09T18:45:36.892Z,11.97
2018-12-09T18:48:04.915Z,20.67
2018-12-09T18:50:32.961Z,18.27
2018-12-09T18:53:00.902Z,9.10
2018-12-09T18:55:28.895Z,8.73
2018-12-09T18:57:56.881Z,7.27
2018-12-09T19:00:24.908Z,12.37
2018-12-09T19:02:52.853Z,20.17
2018-12-09T19:05:20.876Z,11.23
2018-12-09T19:07:49.148Z,15.97
2018-12-09T19:10:17.136Z,12.97
2018-12-09T19:12:45.294Z,7.63
2018-12-09T19:15:13.284Z,8.43
2018-12-09T19:17:41.434Z,13.60
2018-12-09T19:20:09.377Z,21.13
2018-12-09T19:22:37.355Z,6.83
2018-12-09T19:25:05.620Z,11.90
2018-12-09T19:27:33.604Z,8.03
2018-12-09T19:30:01.538Z,8.60
2018-12-09T19:32:29.483Z,4.80
2018-12-09T19:34:58.285Z,8.63
2018-12-09T19:37:26.217Z,8.57
2018-12-09T19:39:54.143Z,7.10
2018-12-09T19:42:22.077Z,7.77
2018-12-09T19:44:50.209Z,9.73
2018-12-09T19:47:18.263Z,7.20
2018-12-09T19:49:46.270Z,7.37
2018-12-09T19:52:14.504Z,6.63
2018-12-09T19:54:42.513Z,6.90
2018-12-09T19:57:10.461Z,6.90
2018-12-09T19:59:38.429Z,11.97
2018-12-09T20:02:06.442Z,5.50
2018-12-09T20:04:34.611Z,7.60
2018-12-09T20:07:02.530Z,4.27
2018-12-09T20:09:30.474Z,3.90
2018-12-09T20:11:58.535Z,3.20
2018-12-09T20:14:26.529Z,4.80
2018-12-09T20:16:54.443Z,3.53
2018-12-09T20:19:22.433Z,6.63
2018-12-09T20:21:50.714Z,4.63
2018-12-09T20:24:18.848Z,6.27
2018-12-09T20:26:46.773Z,6.10
2018-12-09T20:29:14.905Z,3.57
2018-12-09T20:31:42.855Z,4.67
2018-12-09T20:34:10.856Z,5.13
2018-12-09T20:36:38.938Z,4.13
2018-12-09T20:39:07.086Z,7.30
2018-12-09T20:41:35.011Z,7.70
2018-12-09T20:44:03.029Z,12.23
2018-12-09T20:46:31.056Z,8.33
2018-12-09T20:48:58.993Z,4.60
2018-12-09T20:51:27.002Z,10.63
2018-12-09T20:53:54.934Z,10.70
2018-12-09T20:56:22.999Z,8.57
2018-12-09T20:58:51.036Z,10.03
2018-12-09T21:01:19.459Z,7.57
2018-12-09T21:03:47.390Z,3.23
2018-12-09T21:06:15.334Z,4.40
2018-12-09T21:08:43.279Z,4.90
2018-12-09T21:11:12.184Z,4.50
2018-12-09T21:13:40.169Z,4.30
2018-12-09T21:16:08.210Z,8.10
2018-12-09T21:18:36.351Z,7.50
2018-12-09T21:21:04.317Z,18.43
2018-12-09T21:23:32.396Z,6.20
2018-12-09T21:26:00.306Z,12.20
2018-12-09T21:28:28.249Z,16.93
2018-12-09T21:30:56.218Z,10.00
2018-12-09T21:33:24.205Z,13.67
2018-12-09T21:35:52.189Z,15.10
2018-12-09T21:38:20.152Z,10.70
2018-12-09T21:40:48.107Z,6.33
2018-12-09T21:43:16.091Z,12.30
2018-12-09T21:45:44.014Z,4.63
2018-12-09T21:48:12.489Z,4.93
2018-12-09T21:50:40.699Z,7.40
2018-12-09T21:53:09.155Z,3.40
2018-12-09T21:55:37.049Z,13.63
2018-12-09T21:58:04.994Z,6.20
2018-12-09T22:00:32.954Z,5.17
2018-12-09T22:03:00.972Z,5.80
2018-12-09T22:05:28.917Z,3.83
2018-12-09T22:07:56.862Z,4.43
2018-12-09T22:10:24.814Z,5.43
2018-12-09T22:12:52.808Z,6.57
2018-12-09T22:15:20.793Z,9.00
2018-12-09T22:17:48.790Z,10.20
2018-12-09T22:20:16.733Z,10.23
2018-12-09T22:22:44.709Z,10.77
2018-12-09T22:25:12.679Z,13.30
2018-12-09T22:27:40.625Z,10.20
2018-12-09T22:30:08.577Z,12.33
2018-12-09T22:32:36.646Z,15.07
2018-12-09T22:35:05.277Z,14.70
2018-12-09T22:37:33.344Z,10.97
2018-12-09T22:40:01.255Z,12.47
2018-12-09T22:42:29.257Z,13.50
2018-12-09T22:44:57.200Z,20.80
2018-12-09T22:47:25.164Z,22.13
2018-12-09T22:49:53.138Z,10.43
2018-12-09T22:52:21.342Z,13.77
2018-12-09T22:54:49.301Z,21.80
2018-12-09T22:57:17.334Z,16.53
2018-12-09T22:59:45.455Z,16.60
2018-12-09T23:02:18.989Z,16.70
2018-12-09T23:04:47.015Z,15.73
2018-12-09T23:07:20.729Z,26.00
2018-12-09T23:09:49.208Z,14.50
2018-12-09T23:12:17.293Z,15.53
2018-12-09T23:14:45.409Z,18.93
2018-12-09T23:17:13.377Z,21.33
2018-12-09T23:19:41.338Z,14.33
2018-12-09T23:22:09.313Z,18.50
2018-12-09T23:24:37.306Z,17.87
2018-12-09T23:27:05.285Z,21.40
2018-12-09T23:29:33.244Z,15.33
2018-12-09T23:32:01.671Z,12.17
2018-12-09T23:34:29.574Z,13.33
2018-12-09T23:36:57.853Z,16.87
2018-12-09T23:39:25.836Z,17.33
2018-12-09T23:41:53.780Z,17.60
2018-12-09T23:44:21.715Z,21.53
2018-12-09T23:46:50.463Z,17.43
2018-12-09T23:49:18.413Z,11.43
2018-12-09T23:51:46.433Z,15.67
2018-12-09T23:54:14.428Z,21.13
2018-12-09T23:56:42.414Z,17.67
2018-12-09T23:59:10.387Z,17.70
